Date,TemperatureHighF,TemperatureAvgF,TemperatureLowF,DewpointHighF,DewpointAvgF,DewpointLowF,HumidityHigh,HumidityAvg,HumidityLow,PressureMaxIn,PressureMinIn,WindSpeedMaxMPH,WindSpeedAvgMPH,GustSpeedMaxMPH,PrecipitationSumIn
2013-11-1,58.1,48.3,35.2,38.2,28.5,16.6,82,50,23,27.30,26.90,21,8,21,0.00
2013-11-2,63.7,42.6,23.2,33.4,23.3,16.3,77,52,21,27.35,26.97,17,5,17,0.00
2013-11-3,65.1,44.3,33.1,37.2,30.8,25.3,81,61,32,27.17,26.67,9,3,9,0.00
2013-11-4,53.2,42.9,32.2,38.0,31.9,23.8,94,67,41,27.21,26.82,56,4,56,0.00
2013-11-5,37.8,35.1,30.4,37.3,32.8,17.8,99,92,48,27.26,27.05,14,4,14,0.00
2013-11-6,59.9,34.5,19.8,36.7,25.8,17.3,92,73,40,27.40,27.24,12,2,12,0.00
2013-11-7,58.1,40.0,25.2,36.1,30.3,22.1,93,71,39,27.53,27.21,9,2,9,0.00
2013-11-8,71.2,47.9,29.1,38.9,31.7,22.7,89,60,16,27.19,26.87,16,3,16,0.00
2013-11-9,63.9,45.0,31.1,39.1,30.6,16.6,92,64,22,27.40,27.11,13,2,13,0.00
2013-11-10,61.7,42.3,27.0,47.8,35.8,22.2,93,79,58,27.41,27.23,15,3,15,0.00
2013-11-11,36.0,31.5,26.8,34.7,26.4,18.3,96,82,68,27.79,27.21,17,6,17,0.00
2013-11-12,76.3,35.3,16.3,52.8,26.1,10.9,87,70,44,29.73,27.14,14,4,14,0.00
2013-11-13,76.3,43.0,21.7,71.1,29.3,18.2,92,64,24,27.49,27.02,8,1,8,0.13
2013-11-14,59.5,47.7,35.2,41.9,35.8,27.8,82,65,40,27.17,27.01,15,5,15,0.00
2013-11-17,52.0,42.2,23.9,27.8,13.9,3.5,63,34,21,29.91,26.65,29,9,29,0.00
2013-11-18,64.4,37.6,18.1,22.3,15.4,7.6,70,45,17,27.30,27.15,16,3,16,0.00
2013-11-19,57.6,39.2,23.7,31.6,23.3,13.8,74,55,32,27.17,26.84,15,3,98,0.00
2013-11-20,64.8,44.7,20.3,37.0,28.6,9.3,95,58,22,27.31,26.86,15,2,15,0.13
2013-11-21,40.5,21.4,16.9,31.1,11.2,6.4,73,64,57,27.70,27.11,29,13,29,0.00
2013-11-22,71.2,23.0,14.2,17.5,11.1,4.9,74,61,43,27.73,26.87,9,3,9,0.00
2013-11-23,40.8,23.7,16.3,37.5,12.6,7.9,92,63,46,27.82,27.18,8,2,8,0.00
2013-11-24,45.5,28.3,13.1,33.9,19.0,6.3,89,69,46,27.61,27.14,30,6,30,0.00
2013-11-25,47.7,29.6,15.1,29.0,16.0,8.8,85,60,27,27.38,27.14,20,4,20,0.00
2013-11-26,45.0,26.2,13.1,30.6,14.8,3.5,84,63,45,27.71,27.38,17,4,17,0.00
2013-11-27,62.4,32.2,11.1,29.6,16.5,2.7,79,57,22,27.47,27.07,8,2,8,0.00
2013-11-28,44.8,30.4,18.9,34.9,20.6,11.5,84,68,43,27.42,27.02,8,2,8,0.00
2013-11-29,59.4,28.0,14.7,35.6,19.7,9.1,86,72,41,27.41,26.66,9,2,9,0.00
2013-11-30,62.2,36.3,20.8,33.6,22.0,17.0,87,62,23,27.26,26.54,12,3,12,0.00